Nearby METAR Reports

 

ENCN - Kristiansand/Kje, Norway
Distance from station: N 17km
Opdateer: 01/03/2024 05:50
Ligte reën, Meestal bewolk
Ligte reën, Meestal bewolk
 Wind van SO
Wind: SO 19 km/h
Temperatuur: 6°C
Wind Chill: 3°C
Doupunt: 5°C
Humiditeit: 93%
Druk: 1001 hPa
Obsomming: Ligte reën
Clouds: Meestal bewolk
Visibility: 4 km
Cloud details: Meestal bewolk 152 m
2024/03/01 04:50 ENCN 010450Z 13010KT 090V150 4000 -RA BKN005 06/05 Q1001
EKSN - Sindal Airport, Denmark
Distance from station: OSO 145km
Opdateer: 30/12/2021 14:50
NOT Current
Mist, Meestal bewolk
Mist, Meestal bewolk
 Wind van SW
Wind: SW 26 km/h
Temperatuur: 7°C
Wind Chill: 3°C
Doupunt: 7°C
Humiditeit: 100%
Druk: 999 hPa
Obsomming: Mist
Clouds: Meestal bewolk
Visibility: 5 km
Cloud details: Gedeeltelik bewolk 183 m
Meestal bewolk 244 m
2021/12/30 13:50 EKSN 301350Z 23014KT 4500 BR SCT006 BKN008 07/07 Q0999
 
EKYT - Alborg, Denmark
Distance from station: SO 153km
Opdateer: 01/03/2024 06:13
Mist, Meestal bewolk
Mist, Meestal bewolk
 Wind van SO
Wind: SO 24 km/h
Temperatuur: 4°C
Wind Chill: -1°C
Doupunt: 3°C
Humiditeit: 93%
Druk: 1003 hPa
Obsomming: Mist
Clouds: Meestal bewolk
Visibility: 5 km
Cloud details: Meestal bewolk 3962 m
2024/03/01 05:13 EKYT 010513Z AUTO 13013KT 4900 BR BKN130/// 04/03 Q1003
ENSN - Skien/Geiterygge, Norway
Distance from station: NO 153km
Opdateer: 09/11/2015 09:50
NOT Current
Helder
Helder
 Wind van SSW
Wind: SSW 19 km/h, Windvlaag: 41 km/h
Temperatuur: 7°C
Wind Chill: 4°C
Doupunt: 3°C
Humiditeit: 76%
Druk: 1000 hPa
Obsomming: Helder
Visibility: greater than 10 km
2015/11/09 08:50 ENSN 090850Z 20010G22KT 150V240 CAVOK 07/03 Q1000
 
ENZV - Stavanger/Sola(A, Norway
Distance from station: NW 166km
Opdateer: 01/03/2024 05:50
Ligte reën, Toegetrek
Ligte reën, Toegetrek
 Wind van NO
Wind: NO 6 km/h
Temperatuur: 4°C
Doupunt: 4°C
Humiditeit: 100%
Druk: 998 hPa
Obsomming: Ligte reën
Clouds: Toegetrek
Visibility: 10 km
Cloud details: Gedeeltelik bewolk 213 m
Toegetrek 335 m
2024/03/01 04:50 ENZV 010450Z 04003KT 9999 -RA SCT007 OVC011 04/04 Q0998
ENNO - Notodden, Norway
Distance from station: NNO 182km
Opdateer: 29/02/2024 18:50
NOT Current
Ligte reën, Toegetrek
Ligte reën, Toegetrek
 Wind van O
Wind: O 9 km/h
Temperatuur: 6°C
Wind Chill: 4°C
Doupunt: 4°C
Humiditeit: 87%
Druk: 1002 hPa
Obsomming: Ligte reën
Clouds: Toegetrek
Visibility: 10 km
Cloud details: Toegetrek 274 m
2024/02/29 17:50 ENNO 291750Z 09005KT 9999 -RA OVC009 06/04 Q1002
 
ENTO - Torp (civ/Nor-Af, Norway
Distance from station: NO 183km
Opdateer: 01/03/2024 05:50
Reën, Mist, Toegetrek
Reën, Mist, Toegetrek
 Wind van SSO
Wind: SSO 20 km/h
Temperatuur: 4°C
Wind Chill: -1°C
Doupunt: 4°C
Humiditeit: 100%
Druk: 1004 hPa
Obsomming: Reën, Mist
Clouds: Toegetrek
Visibility: 1 km
Cloud details: Toegetrek 61 m
2024/03/01 04:50 ENTO 010450Z 15011KT 1000 R18/P2000N R36/P2000N RA BR OVC002 04/04 Q1004
EKKA - Karup (dan-Afb), Denmark
Distance from station: SSO 209km
Opdateer: 01/03/2024 05:54
Meestal bewolk
Meestal bewolk
 Wind van SO
Wind: SO 17 km/h
Temperatuur: 4°C
Wind Chill: 0°C
Doupunt: 3°C
Humiditeit: 93%
Druk: 1002 hPa
Clouds: Meestal bewolk
Visibility: 7 km
Cloud details: Meestal bewolk 1158 m
Meestal bewolk 4572 m
2024/03/01 04:54 EKKA 010454Z AUTO 13009KT 7000 BKN038/// BKN150/// 04/03 Q1002
 
ENHD - Haugesund/Karmoy, Norway
Distance from station: NW 216km
Opdateer: 01/03/2024 05:50
Ligte reën, Meestal bewolk
Ligte reën, Meestal bewolk
 Wind van O
Wind: O 9 km/h
Temperatuur: 4°C
Wind Chill: 2°C
Doupunt: 3°C
Humiditeit: 93%
Druk: 998 hPa
Obsomming: Ligte reën
Clouds: Meestal bewolk
Visibility: 10 km
Cloud details: Few Clouds 305 m
Meestal bewolk 396 m
Meestal bewolk 518 m
2024/03/01 04:50 ENHD 010450Z AUTO 09005KT 9999 -RA FEW010/// BKN013/// BKN017/// 04/03 Q0998
ENRY - Rygge (nor-Afb), Norway
Distance from station: NO 216km
Opdateer: 01/03/2024 05:50
Ligte reën, Toegetrek
Ligte reën, Toegetrek
 Wind van SSO
Wind: SSO 19 km/h
Temperatuur: 4°C
Wind Chill: 0°C
Doupunt: 3°C
Humiditeit: 93%
Druk: 1004 hPa
Obsomming: Ligte reën
Clouds: Toegetrek
Visibility: 4 km
Cloud details: Gedeeltelik bewolk 152 m
Meestal bewolk 213 m
Toegetrek 274 m
2024/03/01 04:50 ENRY 010450Z AUTO 15010KT 3800 -RA SCT005/// BKN007/// OVC009/// 04/03 Q1004
 
ESGP - Goteborg/Save (a, Sweden
Distance from station: O 230km
Opdateer: 01/03/2024 05:50
Meestal bewolk
Meestal bewolk
 Wind van SO
Wind: SO 19 km/h
Temperatuur: 3°C
Wind Chill: -2°C
Doupunt: 1°C
Humiditeit: 87%
Druk: 1006 hPa
Clouds: Meestal bewolk
Visibility: 8 km
Cloud details: Meestal bewolk 3962 m
2024/03/01 04:50 ESGP 010450Z AUTO 13010KT 8000 BKN130/// 03/01 Q1006
EKVJ - Stauning Airport, Denmark
Distance from station: S 233km
Opdateer: 01/03/2024 05:50
Toegetrek
Toegetrek
 Wind van OSO
Wind: OSO 20 km/h
Druk: 1001 hPa
Clouds: Toegetrek
Visibility: 10 km
Cloud details: Meestal bewolk 640 m
Toegetrek 823 m
2024/03/01 04:50 EKVJ 010450Z AUTO 12011KT 9999 BKN021/// OVC027/// ///// Q1001
 
ENSO - Stord/Soerstokke, Norway
Distance from station: NW 246km
Opdateer: 29/02/2024 19:20
NOT Current
Meestal bewolk
Meestal bewolk
 Wind van SSO
Wind: SSO 24 km/h
Temperatuur: 6°C
Wind Chill: 2°C
Doupunt: 5°C
Humiditeit: 93%
Druk: 998 hPa
Clouds: Meestal bewolk
Visibility: 10 km
Cloud details: Few Clouds 427 m
Gedeeltelik bewolk 549 m
Meestal bewolk 5182 m
2024/02/29 18:20 ENSO 291820Z 16013KT 9999 FEW014 SCT018 BKN170 06/05 Q0998
EKAH - Tirstrup (civ/Mi, Denmark
Distance from station: SO 252km
Opdateer: 01/03/2024 05:50
Toegetrek
Toegetrek
 Wind van SO
Wind: SO 20 km/h
Temperatuur: 5°C
Wind Chill: 1°C
Doupunt: 3°C
Humiditeit: 87%
Druk: 1004 hPa
Clouds: Toegetrek
Visibility: 5 km
Cloud details: Few Clouds 305 m
Toegetrek 4267 m
2024/03/01 04:50 EKAH 010450Z AUTO 14011KT 5000 FEW010/// OVC140/// 05/03 Q1004
 
ESGT - Trollhattan (pvt, Sweden
Distance from station: O 255km
Opdateer: 01/03/2024 05:50
Toegetrek
Toegetrek
 Wind van SO
Wind: SO 17 km/h
Temperatuur: 2°C
Wind Chill: -2°C
Doupunt: 0°C
Humiditeit: 87%
Druk: 1007 hPa
Clouds: Toegetrek
Visibility: 8 km
Cloud details: Meestal bewolk 274 m
Toegetrek 4267 m
2024/03/01 04:50 ESGT 010450Z AUTO 13009KT 8000 BKN009/// OVC140/// 02/00 Q1007
ESGG - Goteborg/Landvet, Sweden
Distance from station: O 257km
Opdateer: 01/03/2024 05:50
Mist, Meestal bewolk
Mist, Meestal bewolk
 Wind van SO
Wind: SO 22 km/h
Temperatuur: 1°C
Wind Chill: -4°C
Doupunt: 0°C
Humiditeit: 93%
Druk: 1006 hPa
Obsomming: Mist
Clouds: Meestal bewolk
Visibility: 5 km
Cloud details: Meestal bewolk 640 m
2024/03/01 04:50 ESGG 010450Z 14012KT 5000 BR BKN021 01/00 Q1006
 
EKBI - Billund Airport, Denmark
Distance from station: SSO 269km
Opdateer: 01/03/2024 05:50
Mist, Meestal bewolk
Mist, Meestal bewolk
 Wind van OSO
Wind: OSO 13 km/h
Temperatuur: 4°C
Wind Chill: 1°C
Doupunt: 3°C
Humiditeit: 93%
Druk: 1002 hPa
Obsomming: Mist
Clouds: Meestal bewolk
Visibility: 5 km
Cloud details: Few Clouds 1280 m
Gedeeltelik bewolk 1433 m
Meestal bewolk 4572 m
2024/03/01 04:50 EKBI 010450Z AUTO 12007KT 4600 BR FEW042/// SCT047/// BKN150/// 04/03 Q1002
EKHN - Horns Rev B Heli, Denmark
Distance from station: S 274km
Opdateer: 09/08/2016 14:20
NOT Current
Few Clouds
Few Clouds
 Wind van WNW
Wind: WNW 50 km/h, Windvlaag: 72 km/h
Temperatuur: 14°C
Doupunt: 10°C
Humiditeit: 77%
Druk: 1018 hPa
Clouds: Few Clouds
Visibility: 10 km
Cloud details: Few Clouds 1158 m
Few Clouds 2438 m
2016/08/09 12:20 EKHN 091220Z AUTO 29027G39KT 270V340 9999NDV FEW038/// FEW080/// 14/10 Q1018
 
ESIB - Satenas (swe-Afb, Sweden
Distance from station: O 277km
Opdateer: 01/03/2024 05:50
Meestal bewolk
Meestal bewolk
 Wind van SO
Wind: SO 19 km/h
Temperatuur: 1°C
Wind Chill: -4°C
Doupunt: 0°C
Humiditeit: 93%
Druk: 1007 hPa
Clouds: Meestal bewolk
Visibility: 10 km
Cloud details: Meestal bewolk 335 m
2024/03/01 04:50 ESIB 010450Z AUTO 14010KT 9999 BKN011/// 01/00 Q1007
EKHR - Horns Rev B Heli, Denmark
Distance from station: S 282km
Opdateer: 04/10/2016 06:20
NOT Current
Helder
Helder
 Wind van O
Wind: O 4 km/h
Temperatuur: 11°C
Doupunt: -49°C
Humiditeit: 0%
Druk: 1038 hPa
Clouds: Helder
Visibility: 10 km
2016/10/04 04:20 EKHR 040420Z AUTO 08002KT 9999NDV NCD 11/M49 Q1038